This is the latest recevied weather packets stored in our database for station/object KI6AOK. If no packets are shown the sender has not sent any weather packets the latest 10 day(s).
| Time | Temp. | Humidity | Pressure | Rain* | Wind** | Luminosity | Snow |
|---|---|---|---|---|---|---|---|
| 1777921350 | 19.44° C | 53% | 1016.1 hPa | 0 mm | - | 880 W/m² | - |
| 1777921046 | 20° C | 52% | 1016.3 hPa | 0 mm | - | 328 W/m² | - |
| 1777920743 | 19.44° C | 54% | 1016.3 hPa | 0 mm | - | 375 W/m² | - |
| 1777920439 | 20° C | 52% | 1016.3 hPa | 0 mm | - | 675 W/m² | - |
| 1777920135 | 19.44° C | 52% | 1016.1 hPa | 0 mm | - | 874 W/m² | - |
| 1777919831 | 18.89° C | 54% | 1016.2 hPa | 0 mm | - | 643 W/m² | - |
| 1777919528 | 18.89° C | 53% | 1016.3 hPa | 0 mm | - | 722 W/m² | - |
| 1777919226 | 19.44° C | 52% | 1016.2 hPa | 0 mm | - | 480 W/m² | - |
| 1777918923 | 19.44° C | 53% | 1016.2 hPa | 0 mm | - | 727 W/m² | - |
| 1777918621 | 18.89° C | 54% | 1016.1 hPa | 0 mm | - | 980 W/m² | - |
| 1777918318 | 18.89° C | 56% | 1016.2 hPa | 0 mm | - | 967 W/m² | - |
| 1777918017 | 18.89° C | 57% | 1016.4 hPa | 0 mm | - | 410 W/m² | - |
| 1777917715 | 18.89° C | 58% | 1016.3 hPa | 0 mm | - | 350 W/m² | - |
| 1777917412 | 17.78° C | 61% | 1016.3 hPa | 0 mm | - | 798 W/m² | - |
| 1777917109 | 17.22° C | 64% | 1016.2 hPa | 0 mm | - | 373 W/m² | - |
| 1777916807 | 17.22° C | 64% | 1016.3 hPa | 0 mm | - | 254 W/m² | - |
| 1777916503 | 17.78° C | 61% | 1016.3 hPa | 0 mm | - | 264 W/m² | - |
| 1777916201 | 17.22° C | 61% | 1016.1 hPa | 0 mm | - | 316 W/m² | - |
| 1777915898 | 16.67° C | 61% | 1016.1 hPa | 0 mm | - | 322 W/m² | - |
| 1777915595 | 16.67° C | 62% | 1016 hPa | 0 mm | - | 243 W/m² | - |
| 1777915291 | 16.67° C | 62% | 1016.2 hPa | 0 mm | - | 182 W/m² | - |
| 1777914987 | 17.22° C | 64% | 1016 hPa | 0 mm | - | 143 W/m² | - |
| 1777914685 | 16.67° C | 63% | 1016.1 hPa | 0 mm | - | 177 W/m² | - |
| 1777914381 | 16.67° C | 64% | 1015.8 hPa | 0 mm | - | 228 W/m² | - |
| 1777914079 | 17.22° C | 63% | 1015.9 hPa | 0 mm | - | 228 W/m² | - |
* Rain latest hour (hover to see other rain measurements)
** Current wind speed in m/s (hover to see current wind gust speed)